createdAt,value
2018-05-14T00:00:20.100Z,79.10
2018-05-14T00:01:25.622Z,76.90
2018-05-14T00:02:31.129Z,77.70
2018-05-14T00:03:36.682Z,76.10
2018-05-14T00:04:42.163Z,75.90
2018-05-14T00:05:47.676Z,77.90
2018-05-14T00:06:53.185Z,75.80
2018-05-14T00:07:58.711Z,74.70
2018-05-14T00:09:04.221Z,76.80
2018-05-14T00:10:09.732Z,76.50
2018-05-14T00:11:15.244Z,76.00
2018-05-14T00:12:20.772Z,77.70
2018-05-14T00:13:26.278Z,78.60
2018-05-14T00:14:31.793Z,78.70
2018-05-14T00:15:37.311Z,77.10
2018-05-14T00:16:42.829Z,79.30
2018-05-14T00:17:48.343Z,78.60
2018-05-14T00:18:53.863Z,78.40
2018-05-14T00:19:59.376Z,77.40
2018-05-14T00:21:04.883Z,82.70
2018-05-14T00:22:10.399Z,76.80
2018-05-14T00:23:15.912Z,84.50
2018-05-14T00:24:21.427Z,80.20
2018-05-14T00:25:26.950Z,79.10
2018-05-14T00:26:32.472Z,83.80
2018-05-14T00:27:37.986Z,82.30
2018-05-14T00:28:43.498Z,84.40
2018-05-14T00:29:49.002Z,79.80
2018-05-14T00:30:54.521Z,81.20
2018-05-14T00:32:00.035Z,84.50
2018-05-14T00:33:05.546Z,84.30
2018-05-14T00:34:11.067Z,79.80
2018-05-14T00:35:16.580Z,77.70
2018-05-14T00:36:22.096Z,80.50
2018-05-14T00:37:27.611Z,81.00
2018-05-14T00:38:33.125Z,87.30
2018-05-14T00:39:38.641Z,80.90
2018-05-14T00:40:44.159Z,86.00
2018-05-14T00:41:49.678Z,85.00
2018-05-14T00:42:55.194Z,87.90
2018-05-14T00:44:00.697Z,85.90
2018-05-14T00:45:06.215Z,84.20
2018-05-14T00:46:11.738Z,83.30
2018-05-14T00:47:17.258Z,85.50
2018-05-14T00:48:22.764Z,83.40
2018-05-14T00:49:28.324Z,85.90
2018-05-14T00:50:33.796Z,87.70
2018-05-14T00:51:39.304Z,84.50
2018-05-14T00:52:44.826Z,90.80
2018-05-14T00:53:50.342Z,87.10
2018-05-14T00:54:55.848Z,88.00
2018-05-14T00:56:01.401Z,88.20
2018-05-14T00:57:06.881Z,86.40
2018-05-14T00:58:12.392Z,85.10
2018-05-14T00:59:17.911Z,86.20
2018-05-14T01:00:23.437Z,88.00
2018-05-14T01:01:28.939Z,83.80
2018-05-14T01:02:34.460Z,83.90
2018-05-14T01:03:39.973Z,85.40
2018-05-14T01:04:45.494Z,87.80
2018-05-14T01:05:51.009Z,87.50
2018-05-14T01:06:56.513Z,80.70
2018-05-14T01:08:02.028Z,89.00
2018-05-14T01:09:07.541Z,83.80
2018-05-14T01:10:13.061Z,81.00
2018-05-14T01:11:18.576Z,83.20
2018-05-14T01:12:24.096Z,82.90
2018-05-14T01:13:29.602Z,83.90
2018-05-14T01:14:35.119Z,82.80
2018-05-14T01:15:40.636Z,89.10
2018-05-14T01:16:46.158Z,86.60
2018-05-14T01:17:51.674Z,81.90
2018-05-14T01:18:57.186Z,80.30
2018-05-14T01:20:02.703Z,84.10
2018-05-14T01:21:08.208Z,86.40
2018-05-14T01:22:13.723Z,82.20
2018-05-14T01:23:19.241Z,85.80
2018-05-14T01:24:24.758Z,84.40
2018-05-14T01:25:30.274Z,84.20
2018-05-14T01:26:35.788Z,83.40
2018-05-14T01:27:41.300Z,84.50
2018-05-14T01:28:46.826Z,84.10
2018-05-14T01:29:52.331Z,83.50
2018-05-14T01:30:57.844Z,86.50
2018-05-14T01:32:03.363Z,83.40
2018-05-14T01:33:08.884Z,87.10
2018-05-14T01:34:14.396Z,88.10
2018-05-14T01:35:19.926Z,88.70
2018-05-14T01:36:25.420Z,81.90
2018-05-14T01:37:30.947Z,81.10
2018-05-14T01:38:36.454Z,82.70
2018-05-14T01:39:41.972Z,81.80
2018-05-14T01:40:47.485Z,87.40
2018-05-14T01:41:53.007Z,80.70
2018-05-14T01:42:58.514Z,81.00
2018-05-14T01:44:04.026Z,81.60
2018-05-14T01:45:09.552Z,79.80
2018-05-14T01:46:15.063Z,74.70
2018-05-14T01:47:20.583Z,75.90
2018-05-14T01:48:26.089Z,75.10
2018-05-14T01:49:31.611Z,75.80
2018-05-14T01:50:37.122Z,75.70
2018-05-14T01:51:42.693Z,69.00
2018-05-14T01:52:48.153Z,72.40
2018-05-14T01:53:53.671Z,73.60
2018-05-14T01:54:59.178Z,73.80
2018-05-14T01:56:04.698Z,73.30
2018-05-14T01:57:10.227Z,73.60
2018-05-14T01:58:15.731Z,73.40
2018-05-14T01:59:21.248Z,72.40
2018-05-14T02:00:26.758Z,71.10
2018-05-14T02:01:32.276Z,76.00
2018-05-14T02:02:37.788Z,72.00
2018-05-14T02:03:43.306Z,72.60
2018-05-14T02:04:48.822Z,69.10
2018-05-14T02:05:54.336Z,71.80
2018-05-14T02:06:59.848Z,68.50
2018-05-14T02:08:05.373Z,69.80
2018-05-14T02:09:10.881Z,70.50
2018-05-14T02:10:16.404Z,69.30
2018-05-14T02:11:21.917Z,69.30
2018-05-14T02:12:27.476Z,72.00
2018-05-14T02:13:32.944Z,73.50
2018-05-14T02:14:38.459Z,74.90
2018-05-14T02:15:43.982Z,72.10
2018-05-14T02:16:49.498Z,69.30
2018-05-14T02:17:55.000Z,69.80
2018-05-14T02:19:00.515Z,71.20
2018-05-14T02:20:06.036Z,74.70
2018-05-14T02:21:11.547Z,74.00
2018-05-14T02:22:17.073Z,70.20
2018-05-14T02:23:22.577Z,69.80
2018-05-14T02:24:28.122Z,73.00
2018-05-14T02:25:33.616Z,74.70
2018-05-14T02:26:39.122Z,76.30
2018-05-14T02:27:44.646Z,77.20
2018-05-14T02:28:50.163Z,72.90
2018-05-14T02:29:55.676Z,71.30
2018-05-14T02:31:01.207Z,73.80
2018-05-14T02:32:06.750Z,72.10
2018-05-14T02:33:12.213Z,72.00
2018-05-14T02:34:17.733Z,76.40
2018-05-14T02:35:23.249Z,73.00
2018-05-14T02:36:28.761Z,77.00
2018-05-14T02:37:34.279Z,72.00
2018-05-14T02:38:39.798Z,80.30
2018-05-14T02:39:45.315Z,84.40
2018-05-14T02:40:50.828Z,78.00
2018-05-14T02:41:56.343Z,81.70
2018-05-14T02:43:01.856Z,74.00
2018-05-14T02:44:07.377Z,78.10
2018-05-14T02:45:12.888Z,78.30
2018-05-14T02:46:18.403Z,73.50
2018-05-14T02:47:23.922Z,72.60
2018-05-14T02:48:29.435Z,74.40
2018-05-14T02:49:34.950Z,71.10
2018-05-14T02:50:40.465Z,76.00
2018-05-14T02:51:45.980Z,70.70
2018-05-14T02:52:51.490Z,73.10
2018-05-14T02:53:57.012Z,72.60
2018-05-14T02:55:02.527Z,69.80
2018-05-14T02:56:08.038Z,71.50
2018-05-14T02:57:13.563Z,68.90
2018-05-14T02:58:19.077Z,72.50
2018-05-14T02:59:24.583Z,72.30
2018-05-14T03:00:30.102Z,73.20
2018-05-14T03:01:35.612Z,72.50
2018-05-14T03:02:41.125Z,72.90
2018-05-14T03:03:46.648Z,77.30
2018-05-14T03:04:52.173Z,77.90
2018-05-14T03:05:57.674Z,78.10
2018-05-14T03:07:03.193Z,79.50
2018-05-14T03:08:08.710Z,78.90
2018-05-14T03:09:14.220Z,80.90
2018-05-14T03:10:19.809Z,76.10
2018-05-14T03:11:25.256Z,76.20
2018-05-14T03:12:30.766Z,76.00
2018-05-14T03:13:36.280Z,77.60
2018-05-14T03:14:41.794Z,78.00
2018-05-14T03:15:47.316Z,81.10
2018-05-14T03:16:52.832Z,82.90
2018-05-14T03:17:58.341Z,78.90
2018-05-14T03:19:03.856Z,79.80
2018-05-14T03:20:09.381Z,75.70
2018-05-14T03:21:14.904Z,77.10
2018-05-14T03:22:20.402Z,78.30
2018-05-14T03:23:25.930Z,72.80
2018-05-14T03:24:31.432Z,71.80
2018-05-14T03:25:36.952Z,71.00
2018-05-14T03:26:42.468Z,72.30
2018-05-14T03:27:48.041Z,73.00
2018-05-14T03:28:53.492Z,74.10
2018-05-14T03:29:59.009Z,70.70
2018-05-14T03:31:04.540Z,72.70
2018-05-14T03:32:10.044Z,73.60
2018-05-14T03:33:15.559Z,71.10
2018-05-14T03:34:21.074Z,71.10
2018-05-14T03:35:26.593Z,70.10
2018-05-14T03:36:32.109Z,71.40
2018-05-14T03:37:37.617Z,69.80
2018-05-14T03:38:43.139Z,73.80
2018-05-14T03:39:48.650Z,70.70
2018-05-14T03:40:54.160Z,69.10
2018-05-14T03:41:59.680Z,72.30
2018-05-14T03:43:05.192Z,68.90
2018-05-14T03:44:10.704Z,68.40
2018-05-14T03:45:16.221Z,71.70
2018-05-14T03:46:21.748Z,68.80
2018-05-14T03:47:27.257Z,75.20
2018-05-14T03:48:32.772Z,71.80
2018-05-14T03:49:38.286Z,68.70
2018-05-14T03:50:43.801Z,71.90
2018-05-14T03:51:49.319Z,70.70
2018-05-14T03:52:54.832Z,69.10
2018-05-14T03:54:00.343Z,71.10
2018-05-14T03:55:05.884Z,68.10
2018-05-14T03:56:11.375Z,69.80
2018-05-14T03:57:16.892Z,70.10
2018-05-14T03:58:22.404Z,70.10
2018-05-14T03:59:27.926Z,70.70
2018-05-14T04:00:33.449Z,68.30
2018-05-14T04:01:38.958Z,69.20
2018-05-14T04:02:44.467Z,66.10
2018-05-14T04:03:49.981Z,69.10
2018-05-14T04:04:55.503Z,70.90
2018-05-14T04:06:01.015Z,68.20
2018-05-14T04:07:06.527Z,70.40
2018-05-14T04:08:12.048Z,68.30
2018-05-14T04:09:17.561Z,69.40
2018-05-14T04:10:23.072Z,68.40
2018-05-14T04:11:28.587Z,71.30
2018-05-14T04:12:34.109Z,67.00
2018-05-14T04:13:39.617Z,67.50
2018-05-14T04:14:45.137Z,65.50
2018-05-14T04:15:50.650Z,65.70
2018-05-14T04:16:56.166Z,71.00
2018-05-14T04:18:01.686Z,67.90
2018-05-14T04:19:07.199Z,70.60
2018-05-14T04:20:12.714Z,73.80
2018-05-14T04:21:18.227Z,68.90
2018-05-14T04:22:23.740Z,70.90
2018-05-14T04:23:29.260Z,70.30
2018-05-14T04:24:34.772Z,69.80
2018-05-14T04:25:40.285Z,75.10
2018-05-14T04:26:45.805Z,70.30
2018-05-14T04:27:51.320Z,70.50
2018-05-14T04:28:56.831Z,72.60
2018-05-14T04:30:02.349Z,72.20
2018-05-14T04:31:07.870Z,75.10
2018-05-14T04:32:13.376Z,74.10
2018-05-14T04:33:18.949Z,76.10
2018-05-14T04:34:24.414Z,73.90
2018-05-14T04:35:29.930Z,73.90
2018-05-14T04:36:35.437Z,72.20
2018-05-14T04:37:40.956Z,70.70
2018-05-14T04:38:46.480Z,71.80
2018-05-14T04:39:51.984Z,71.00
2018-05-14T04:40:57.504Z,70.70
2018-05-14T04:42:03.027Z,75.20
2018-05-14T04:43:08.526Z,72.40
2018-05-14T04:44:14.047Z,74.10
2018-05-14T04:45:19.561Z,72.30
2018-05-14T04:46:25.084Z,75.70
2018-05-14T04:47:30.592Z,74.20
2018-05-14T04:48:36.122Z,71.20
2018-05-14T04:49:41.628Z,73.60
2018-05-14T04:50:47.138Z,74.20
2018-05-14T04:51:52.654Z,72.30
2018-05-14T04:52:58.167Z,71.80
2018-05-14T04:54:03.683Z,72.70
2018-05-14T04:55:09.199Z,75.20
2018-05-14T04:56:14.718Z,75.10
2018-05-14T04:57:20.238Z,73.60
2018-05-14T04:58:25.744Z,72.80
2018-05-14T04:59:31.260Z,73.50
2018-05-14T05:00:36.775Z,69.60
2018-05-14T05:01:42.294Z,73.30
2018-05-14T05:02:47.813Z,71.00
2018-05-14T05:03:53.319Z,73.00
2018-05-14T05:04:58.839Z,72.60
2018-05-14T05:06:04.351Z,73.20
2018-05-14T05:07:09.865Z,67.90
2018-05-14T05:08:15.486Z,67.70
2018-05-14T05:09:20.901Z,70.20
2018-05-14T05:10:26.545Z,74.30
2018-05-14T05:11:32.001Z,67.30
2018-05-14T05:12:37.459Z,72.20
2018-05-14T05:13:42.965Z,71.50
2018-05-14T05:14:48.474Z,70.00
2018-05-14T05:15:54.036Z,68.10
2018-05-14T05:16:59.522Z,67.40
2018-05-14T05:18:05.033Z,69.20
2018-05-14T05:19:10.538Z,69.70
2018-05-14T05:20:16.076Z,71.70
2018-05-14T05:21:21.568Z,68.80
2018-05-14T05:22:27.084Z,73.30
2018-05-14T05:23:32.605Z,71.00
2018-05-14T05:24:38.118Z,71.00
2018-05-14T05:25:43.645Z,70.50
2018-05-14T05:26:49.145Z,71.10
2018-05-14T05:27:54.658Z,68.10
2018-05-14T05:29:00.176Z,65.20
2018-05-14T05:30:05.699Z,65.10
2018-05-14T05:31:11.208Z,67.20
2018-05-14T05:32:16.729Z,63.20
2018-05-14T05:33:22.238Z,65.00
2018-05-14T05:34:27.753Z,61.70
2018-05-14T05:35:33.277Z,62.80
2018-05-14T05:36:38.792Z,61.30
2018-05-14T05:37:44.401Z,59.40
2018-05-14T05:38:49.816Z,57.90
2018-05-14T05:39:55.331Z,57.80
2018-05-14T05:41:00.847Z,54.80
2018-05-14T05:42:06.364Z,52.50
2018-05-14T05:43:11.883Z,45.20
2018-05-14T05:44:17.398Z,45.90
2018-05-14T05:45:22.956Z,50.80
2018-05-14T05:46:28.445Z,45.40
2018-05-14T05:47:34.019Z,47.20
2018-05-14T05:48:39.465Z,48.70
2018-05-14T05:49:44.975Z,45.20
2018-05-14T05:50:50.485Z,46.90
2018-05-14T05:51:56.000Z,47.40
2018-05-14T05:53:01.526Z,44.60
2018-05-14T05:54:07.034Z,45.00
2018-05-14T05:55:12.558Z,50.20
2018-05-14T05:56:18.072Z,46.40
2018-05-14T05:57:23.592Z,53.60
2018-05-14T05:58:29.093Z,46.30
2018-05-14T05:59:34.616Z,47.20
2018-05-14T06:00:40.128Z,48.10
2018-05-14T06:01:45.640Z,47.10
2018-05-14T06:02:51.159Z,44.70
2018-05-14T06:03:56.676Z,47.50
2018-05-14T06:05:02.191Z,48.20
2018-05-14T06:06:07.712Z,47.10
2018-05-14T06:07:13.225Z,48.30
2018-05-14T06:08:18.839Z,46.30
2018-05-14T06:09:24.347Z,44.00
2018-05-14T06:10:29.767Z,47.30
2018-05-14T06:11:35.281Z,45.00
2018-05-14T06:12:40.801Z,45.80
2018-05-14T06:13:46.313Z,46.30
2018-05-14T06:14:51.835Z,45.50
2018-05-14T06:15:57.348Z,42.10
2018-05-14T06:17:02.867Z,42.80
2018-05-14T06:18:08.388Z,44.30
2018-05-14T06:19:13.897Z,42.30
2018-05-14T06:20:19.415Z,41.40
2018-05-14T06:21:24.932Z,44.00
2018-05-14T06:22:30.453Z,42.40
2018-05-14T06:23:35.958Z,46.20
2018-05-14T06:24:41.480Z,44.70
2018-05-14T06:25:46.991Z,45.90
2018-05-14T06:26:52.884Z,45.10
2018-05-14T06:27:58.022Z,44.10
2018-05-14T06:29:03.539Z,43.20
2018-05-14T06:30:09.057Z,43.30
2018-05-14T06:31:14.573Z,42.40
2018-05-14T06:32:20.090Z,43.20
2018-05-14T06:33:25.602Z,42.60
2018-05-14T06:34:31.116Z,43.60
2018-05-14T06:35:36.734Z,41.80
2018-05-14T06:36:42.161Z,43.10
2018-05-14T06:37:47.669Z,43.30
2018-05-14T06:38:53.262Z,42.40
2018-05-14T06:39:58.697Z,48.90
2018-05-14T06:41:04.234Z,42.10
2018-05-14T06:42:09.737Z,44.70
2018-05-14T06:43:15.243Z,43.60
2018-05-14T06:44:20.777Z,44.70
2018-05-14T06:45:26.283Z,45.40
2018-05-14T06:46:31.801Z,44.50
2018-05-14T06:47:37.316Z,44.10
2018-05-14T06:48:42.828Z,43.00
2018-05-14T06:49:48.400Z,42.00
2018-05-14T06:50:53.856Z,40.00
2018-05-14T06:51:59.388Z,41.60
2018-05-14T06:53:04.903Z,42.80
2018-05-14T06:54:10.443Z,44.30
2018-05-14T06:55:16.045Z,43.80
2018-05-14T06:56:21.437Z,43.10
2018-05-14T06:57:26.957Z,43.00
2018-05-14T06:58:32.471Z,43.60
2018-05-14T06:59:38.020Z,41.00
2018-05-14T07:00:43.506Z,42.80
2018-05-14T07:01:49.025Z,40.70
2018-05-14T07:02:54.536Z,41.90
2018-05-14T07:04:00.065Z,42.60
2018-05-14T07:05:05.578Z,43.10
2018-05-14T07:06:11.087Z,43.50
2018-05-14T07:07:16.602Z,43.40
2018-05-14T07:08:22.118Z,42.20
2018-05-14T07:09:27.653Z,39.70
2018-05-14T07:10:33.151Z,40.50
2018-05-14T07:11:38.665Z,43.40
2018-05-14T07:12:44.190Z,40.70
2018-05-14T07:13:49.699Z,41.30
2018-05-14T07:14:55.218Z,43.50
2018-05-14T07:16:00.733Z,45.90
2018-05-14T07:17:06.252Z,42.40
2018-05-14T07:18:11.766Z,43.00
2018-05-14T07:19:17.379Z,41.40
2018-05-14T07:20:22.801Z,39.30
2018-05-14T07:21:28.317Z,41.70
2018-05-14T07:22:33.835Z,39.20
2018-05-14T07:23:39.348Z,45.20
2018-05-14T07:24:44.892Z,41.60
2018-05-14T07:25:50.405Z,43.80
2018-05-14T07:26:55.898Z,40.80
2018-05-14T07:28:01.414Z,44.20
2018-05-14T07:29:06.940Z,44.40
2018-05-14T07:30:12.450Z,42.00
2018-05-14T07:31:17.962Z,42.00
2018-05-14T07:32:23.488Z,41.90
2018-05-14T07:33:29.001Z,39.60
2018-05-14T07:34:34.518Z,40.30
2018-05-14T07:35:40.244Z,43.70
2018-05-14T07:36:45.547Z,43.20
2018-05-14T07:37:51.065Z,42.30
2018-05-14T07:38:56.701Z,41.50
2018-05-14T07:40:02.096Z,41.60
2018-05-14T07:41:07.612Z,42.30
2018-05-14T07:42:13.202Z,42.00
2018-05-14T07:43:18.654Z,41.60
2018-05-14T07:44:24.165Z,40.60
2018-05-14T07:45:29.676Z,41.30
2018-05-14T07:46:35.202Z,42.50
2018-05-14T07:47:40.715Z,43.30
2018-05-14T07:48:46.230Z,42.20
2018-05-14T07:49:51.757Z,42.80
2018-05-14T07:50:57.270Z,41.40
2018-05-14T07:52:02.785Z,44.60
2018-05-14T07:53:08.301Z,43.00
2018-05-14T07:54:13.817Z,42.90
2018-05-14T07:55:19.329Z,43.00
2018-05-14T07:56:24.844Z,39.40
2018-05-14T07:57:30.362Z,39.10
2018-05-14T07:58:35.892Z,40.10
2018-05-14T07:59:41.400Z,39.20
2018-05-14T08:00:46.913Z,41.70
2018-05-14T08:01:52.435Z,43.60
2018-05-14T08:02:57.945Z,43.10
2018-05-14T08:04:03.466Z,39.50
2018-05-14T08:05:08.988Z,43.30
2018-05-14T08:06:14.497Z,41.70
2018-05-14T08:07:20.016Z,43.40
2018-05-14T08:08:25.537Z,41.80
2018-05-14T08:09:31.148Z,43.90
2018-05-14T08:10:36.573Z,46.00
2018-05-14T08:11:42.090Z,43.60
2018-05-14T08:12:47.609Z,42.80
2018-05-14T08:13:53.117Z,41.70
2018-05-14T08:14:58.642Z,45.30
2018-05-14T08:16:04.160Z,40.50
2018-05-14T08:17:09.757Z,42.90
2018-05-14T08:18:15.194Z,42.60
2018-05-14T08:19:20.705Z,41.50
2018-05-14T08:20:26.225Z,42.40
2018-05-14T08:21:31.737Z,39.30
2018-05-14T08:22:37.260Z,39.40
2018-05-14T08:23:42.777Z,40.50
2018-05-14T08:24:48.303Z,40.10
2018-05-14T08:25:53.811Z,39.80
2018-05-14T08:26:59.320Z,42.40
2018-05-14T08:28:04.843Z,44.40
2018-05-14T08:29:10.354Z,43.80
2018-05-14T08:30:15.887Z,40.20
2018-05-14T08:31:21.425Z,39.50
2018-05-14T08:32:26.907Z,40.20
2018-05-14T08:33:32.426Z,39.80
2018-05-14T08:34:37.957Z,42.50
2018-05-14T08:35:43.456Z,43.00
2018-05-14T08:36:48.978Z,42.10
2018-05-14T08:37:54.500Z,41.20
2018-05-14T08:39:00.012Z,44.60
2018-05-14T08:40:05.555Z,40.00
2018-05-14T08:41:11.054Z,40.50
2018-05-14T08:42:16.574Z,40.70
2018-05-14T08:43:22.099Z,39.40
2018-05-14T08:44:27.610Z,40.60
2018-05-14T08:45:33.119Z,39.90
2018-05-14T08:46:38.628Z,41.10
2018-05-14T08:47:44.157Z,40.60
2018-05-14T08:48:49.663Z,43.10
2018-05-14T08:49:55.184Z,42.40
2018-05-14T08:51:00.700Z,40.90
2018-05-14T08:52:06.228Z,40.70
2018-05-14T08:53:11.737Z,40.40
2018-05-14T08:54:17.378Z,41.10
2018-05-14T08:55:22.771Z,39.40
2018-05-14T08:56:28.291Z,37.10
2018-05-14T08:57:33.887Z,38.20
2018-05-14T08:58:39.324Z,37.60
2018-05-14T08:59:44.855Z,39.50
2018-05-14T09:00:50.441Z,39.60
2018-05-14T09:01:55.871Z,39.70
2018-05-14T09:03:01.396Z,38.90
2018-05-14T09:04:06.904Z,40.50
2018-05-14T09:05:12.435Z,39.30
2018-05-14T09:06:17.943Z,38.80
2018-05-14T09:07:23.461Z,36.70
2018-05-14T09:08:28.977Z,33.70
2018-05-14T09:09:34.498Z,37.40
2018-05-14T09:10:40.015Z,34.80
2018-05-14T09:11:45.548Z,35.60
2018-05-14T09:12:51.071Z,32.90
2018-05-14T09:13:56.569Z,32.90
2018-05-14T09:15:02.081Z,34.40
2018-05-14T09:16:07.602Z,34.80
2018-05-14T09:17:13.119Z,35.60
2018-05-14T09:18:18.649Z,38.40
2018-05-14T09:19:24.251Z,37.30
2018-05-14T09:20:29.679Z,37.20
2018-05-14T09:21:35.247Z,37.40
2018-05-14T09:22:40.713Z,35.30
2018-05-14T09:23:46.227Z,35.30
2018-05-14T09:24:51.752Z,31.50
2018-05-14T09:25:57.267Z,33.20
2018-05-14T09:27:02.780Z,31.80
2018-05-14T09:28:08.295Z,33.90
2018-05-14T09:29:13.811Z,33.20
2018-05-14T09:30:19.329Z,34.90
2018-05-14T09:31:25.014Z,34.10
2018-05-14T09:32:30.365Z,36.50
2018-05-14T09:33:35.885Z,35.70
2018-05-14T09:34:41.518Z,32.60
2018-05-14T09:35:46.934Z,34.60
2018-05-14T09:36:52.437Z,33.60
2018-05-14T09:37:57.963Z,35.00
2018-05-14T09:39:03.475Z,30.00
2018-05-14T09:40:09.002Z,31.70
2018-05-14T09:41:14.521Z,31.70
2018-05-14T09:42:20.036Z,31.80
2018-05-14T09:43:25.549Z,30.60
2018-05-14T09:44:31.105Z,29.60
2018-05-14T09:45:36.583Z,31.50
2018-05-14T09:46:42.106Z,33.80
2018-05-14T09:47:47.626Z,34.80
2018-05-14T09:48:53.146Z,33.70
2018-05-14T09:49:58.660Z,33.20
2018-05-14T09:51:04.174Z,31.80
2018-05-14T09:52:09.697Z,32.30
2018-05-14T09:53:15.220Z,31.20
2018-05-14T09:54:20.732Z,31.60
2018-05-14T09:55:26.246Z,29.90
2018-05-14T09:56:31.777Z,29.80
2018-05-14T09:57:37.301Z,30.90
2018-05-14T09:58:42.811Z,28.70
2018-05-14T09:59:48.324Z,30.40
2018-05-14T10:00:53.838Z,28.30
2018-05-14T10:01:59.370Z,30.00
2018-05-14T10:03:05.205Z,28.10
2018-05-14T10:04:10.398Z,28.70
2018-05-14T10:05:16.008Z,29.10
2018-05-14T10:06:21.440Z,31.10
2018-05-14T10:07:26.970Z,29.30
2018-05-14T10:08:32.468Z,28.30
2018-05-14T10:09:37.991Z,25.60
2018-05-14T10:10:43.503Z,27.60
2018-05-14T10:11:49.036Z,25.50
2018-05-14T10:12:54.630Z,26.00
2018-05-14T10:14:00.066Z,41.80
2018-05-14T10:15:05.591Z,25.70
2018-05-14T10:16:11.103Z,27.30
2018-05-14T10:17:16.626Z,27.70
2018-05-14T10:18:22.146Z,25.10
2018-05-14T10:19:27.655Z,23.20
2018-05-14T10:20:33.192Z,23.10
2018-05-14T10:21:38.700Z,23.80
2018-05-14T10:22:44.216Z,22.90
2018-05-14T10:23:49.730Z,23.10
2018-05-14T10:24:55.255Z,23.00
2018-05-14T10:26:00.781Z,24.70
2018-05-14T10:27:06.291Z,23.10
2018-05-14T10:28:11.817Z,23.70
2018-05-14T10:29:17.327Z,23.60
2018-05-14T10:30:22.847Z,23.80
2018-05-14T10:31:28.364Z,26.40
2018-05-14T10:32:34.110Z,29.90
2018-05-14T10:33:39.402Z,26.40
2018-05-14T10:34:44.992Z,25.70
2018-05-14T10:35:50.470Z,24.80
2018-05-14T10:36:55.966Z,25.20
2018-05-14T10:38:01.485Z,23.70
2018-05-14T10:39:06.999Z,24.00
2018-05-14T10:40:12.519Z,21.30
2018-05-14T10:41:18.054Z,20.30
2018-05-14T10:42:23.568Z,19.60
2018-05-14T10:43:29.086Z,20.00
2018-05-14T10:44:34.596Z,20.50
2018-05-14T10:45:40.121Z,20.00
2018-05-14T10:46:45.729Z,18.90
2018-05-14T10:47:51.162Z,19.80
2018-05-14T10:48:56.678Z,19.40
2018-05-14T10:50:02.200Z,20.00
2018-05-14T10:51:07.714Z,22.30
2018-05-14T10:52:13.236Z,20.90
2018-05-14T10:53:18.755Z,19.30
2018-05-14T10:54:24.285Z,19.30
2018-05-14T10:55:29.793Z,19.20
2018-05-14T10:56:35.307Z,19.40
2018-05-14T10:57:40.836Z,19.70
2018-05-14T10:58:46.441Z,19.90
2018-05-14T10:59:51.888Z,18.60
2018-05-14T11:00:57.389Z,20.30
2018-05-14T11:02:02.910Z,20.30
2018-05-14T11:03:08.524Z,21.30
2018-05-14T11:04:13.958Z,21.30
2018-05-14T11:05:19.491Z,21.60
2018-05-14T11:06:24.992Z,19.40
2018-05-14T11:07:30.522Z,23.00
2018-05-14T11:08:36.039Z,18.50
2018-05-14T11:09:41.547Z,18.40
2018-05-14T11:10:47.077Z,17.50
2018-05-14T11:11:52.592Z,16.90
2018-05-14T11:12:58.109Z,15.10
2018-05-14T11:14:03.640Z,14.40
2018-05-14T11:15:09.150Z,12.80
2018-05-14T11:16:14.674Z,12.60
2018-05-14T11:17:20.198Z,14.10
2018-05-14T11:18:25.714Z,11.80
2018-05-14T11:19:31.230Z,12.00
2018-05-14T11:20:36.756Z,12.20
2018-05-14T11:21:42.280Z,11.60
2018-05-14T11:22:47.793Z,12.80
2018-05-14T11:23:53.315Z,12.40
2018-05-14T11:24:58.837Z,11.50
2018-05-14T11:26:04.359Z,11.70
2018-05-14T11:27:09.881Z,11.10
2018-05-14T11:28:15.416Z,12.10
2018-05-14T11:29:20.912Z,13.50
2018-05-14T11:30:26.443Z,11.60
2018-05-14T11:31:31.958Z,12.10
2018-05-14T11:32:37.489Z,12.90
2018-05-14T11:33:42.996Z,13.10
2018-05-14T11:34:48.527Z,11.70
2018-05-14T11:35:54.037Z,12.40
2018-05-14T11:36:59.558Z,12.90
2018-05-14T11:38:05.072Z,12.50
2018-05-14T11:39:10.593Z,13.00
2018-05-14T11:40:16.120Z,11.50
2018-05-14T11:41:21.632Z,10.50
2018-05-14T11:42:27.156Z,9.50
2018-05-14T11:43:32.680Z,10.20
2018-05-14T11:44:38.197Z,11.40
2018-05-14T11:45:43.722Z,8.50
2018-05-14T11:46:49.248Z,10.40
2018-05-14T11:47:54.772Z,8.70
2018-05-14T11:49:00.298Z,9.30
2018-05-14T11:50:05.802Z,13.80
2018-05-14T11:51:11.323Z,9.80
2018-05-14T11:52:16.850Z,9.70
2018-05-14T11:53:22.362Z,13.10
2018-05-14T11:54:27.892Z,11.80
2018-05-14T11:55:33.453Z,11.50
2018-05-14T11:56:38.948Z,11.20
2018-05-14T11:57:44.449Z,14.20
2018-05-14T11:58:49.966Z,10.60
2018-05-14T11:59:55.488Z,12.20
2018-05-14T12:01:01.011Z,11.50
2018-05-14T12:02:06.535Z,11.70
2018-05-14T12:03:12.180Z,11.40
2018-05-14T12:04:17.579Z,9.80
2018-05-14T12:05:23.096Z,9.80
2018-05-14T12:06:28.632Z,9.60
2018-05-14T12:07:34.136Z,9.80
2018-05-14T12:08:39.654Z,8.80
2018-05-14T12:09:45.176Z,9.70
2018-05-14T12:10:50.708Z,8.00
2018-05-14T12:11:56.222Z,9.60
2018-05-14T12:13:01.746Z,8.50
2018-05-14T12:14:07.274Z,8.30
2018-05-14T12:15:12.776Z,13.00
2018-05-14T12:16:18.312Z,9.90
2018-05-14T12:17:23.827Z,8.40
2018-05-14T12:18:29.349Z,9.00
2018-05-14T12:19:35.864Z,10.40
2018-05-14T12:20:40.411Z,9.80
2018-05-14T12:21:45.906Z,8.70
2018-05-14T12:22:51.429Z,7.80
2018-05-14T12:23:56.948Z,8.20
2018-05-14T12:25:02.473Z,9.20
2018-05-14T12:26:07.997Z,8.50
2018-05-14T12:27:13.518Z,7.40
2018-05-14T12:28:19.034Z,8.30
2018-05-14T12:29:24.557Z,7.40
2018-05-14T12:30:30.093Z,8.00
2018-05-14T12:31:35.598Z,8.40
2018-05-14T12:32:41.119Z,8.90
2018-05-14T12:33:46.649Z,7.60
2018-05-14T12:34:52.167Z,6.80
2018-05-14T12:35:57.688Z,10.30
2018-05-14T12:37:03.214Z,9.70
2018-05-14T12:38:08.730Z,8.80
2018-05-14T12:39:14.249Z,9.00
2018-05-14T12:40:19.777Z,7.50
2018-05-14T12:41:25.298Z,7.40
2018-05-14T12:42:30.832Z,7.10
2018-05-14T12:43:36.337Z,9.00
2018-05-14T12:44:41.855Z,8.50
2018-05-14T12:45:47.473Z,7.20
2018-05-14T12:46:52.905Z,9.20
2018-05-14T12:47:58.440Z,7.40
2018-05-14T12:49:03.946Z,7.30
2018-05-14T12:50:09.468Z,7.10
2018-05-14T12:51:14.986Z,7.00
2018-05-14T12:52:20.508Z,7.90
2018-05-14T12:53:26.034Z,6.10
2018-05-14T12:54:31.559Z,6.20
2018-05-14T12:55:37.086Z,5.60
2018-05-14T12:56:42.598Z,6.30
2018-05-14T12:57:48.131Z,6.20
2018-05-14T12:58:53.644Z,6.10
2018-05-14T12:59:59.162Z,7.10
2018-05-14T13:01:04.685Z,6.20
2018-05-14T13:02:10.199Z,5.40
2018-05-14T13:03:15.730Z,5.80
2018-05-14T13:04:21.248Z,5.80
2018-05-14T13:05:26.772Z,5.00
2018-05-14T13:06:32.290Z,6.40
2018-05-14T13:07:37.811Z,5.30
2018-05-14T13:08:43.333Z,4.90
2018-05-14T13:09:48.858Z,7.30
2018-05-14T13:10:54.397Z,5.60
2018-05-14T13:11:59.907Z,7.30
2018-05-14T13:13:05.446Z,5.20
2018-05-14T13:14:10.939Z,7.60
2018-05-14T13:15:16.471Z,6.30
2018-05-14T13:16:21.991Z,6.00
2018-05-14T13:17:27.510Z,5.30
2018-05-14T13:18:33.035Z,6.10
2018-05-14T13:19:38.554Z,6.00
2018-05-14T13:20:44.089Z,6.90
2018-05-14T13:21:49.609Z,5.10
2018-05-14T13:22:55.126Z,6.90
2018-05-14T13:24:00.635Z,6.50
2018-05-14T13:25:06.161Z,4.90
2018-05-14T13:26:11.750Z,5.60
2018-05-14T13:27:17.207Z,5.80
2018-05-14T13:28:22.732Z,8.00
2018-05-14T13:29:28.245Z,6.40
2018-05-14T13:30:33.770Z,5.80
2018-05-14T13:31:39.290Z,4.90
2018-05-14T13:32:44.824Z,8.10
2018-05-14T13:33:50.336Z,5.30
2018-05-14T13:34:55.860Z,5.30
2018-05-14T13:36:01.384Z,5.70
2018-05-14T13:37:06.901Z,5.00
2018-05-14T13:38:12.420Z,5.80
2018-05-14T13:39:17.941Z,7.40
2018-05-14T13:40:23.461Z,8.20
2018-05-14T13:41:28.988Z,4.60
2018-05-14T13:42:34.622Z,5.90
2018-05-14T13:43:40.038Z,6.50
2018-05-14T13:44:45.566Z,6.80
2018-05-14T13:45:51.079Z,5.50
2018-05-14T13:46:56.602Z,7.50
2018-05-14T13:48:02.120Z,5.40
2018-05-14T13:49:07.638Z,4.80
2018-05-14T13:50:13.172Z,5.40
2018-05-14T13:51:18.680Z,4.70
2018-05-14T13:52:24.205Z,4.60
2018-05-14T13:53:29.736Z,5.40
2018-05-14T13:54:35.261Z,6.80
2018-05-14T13:55:40.772Z,5.00
2018-05-14T13:56:46.297Z,5.10
2018-05-14T13:57:51.814Z,6.40
2018-05-14T13:58:57.368Z,5.10
2018-05-14T14:00:02.865Z,4.90
2018-05-14T14:01:08.386Z,5.10
2018-05-14T14:02:13.911Z,5.90
2018-05-14T14:03:19.425Z,5.80
2018-05-14T14:04:24.946Z,7.50
2018-05-14T14:05:30.468Z,5.10
2018-05-14T14:06:35.990Z,6.70
2018-05-14T14:07:41.516Z,4.60